Disclaimer

Please do not use the information listed here in-flight or in-navigation, as they are not provided to us by the airports but are provided by volunteers, so they might be outdated.

Search


Regions


Airport information page

Radio informations:
Tower (TWR) - 127.7 MHz
Automatic Terminal Information Service (ATIS) - 126.75 MHz

Airport informations:
Latitude: 58° 47' 19.09" N
Longitude: 016° 54' 43.88" E
Elevation: 140 feet - 43 meters
Operating hours: Remarks
Operating agency: Civil government, landing fees and diplomatic clearance may be required
Timezone: UTC+1(+2DT) - Last Sunday in March to last Sunday in October
Fuel: Jet A1, without icing nhibitor.

100/130 MIL Spec, low lead, aviation gasoline (BLUE)

Runway information:
08/26 - 9442 x 148 feet< - >2878 x 45 meters
16/34 - 6690 x 131 feet< - >2039 x 40 meters

Recent METARs:
ESKN 211820Z 01003KT 330V050 9999 FEW007 BKN027 01/00 Q1033 R08/290195
ESKN 211850Z VRB03KT 9999 FEW007 BKN027 01/00 Q1033 R08/290195
ESKN 211920Z 36003KT 9999 BKN027 01/00 Q1033 R08/290195

Airport on the map: